createdAt,value
2023-03-02T00:01:52.072Z,100714.16
2023-03-02T00:04:28.605Z,100706.22
2023-03-02T00:07:04.736Z,100718.63
2023-03-02T00:09:32.994Z,100708.09
2023-03-02T00:12:01.169Z,100703.72
2023-03-02T00:14:29.061Z,100714.25
2023-03-02T00:16:56.880Z,100716.94
2023-03-02T00:19:24.770Z,100706.41
2023-03-02T00:21:52.603Z,100715.19
2023-03-02T00:24:20.254Z,100710.78
2023-03-02T00:26:48.044Z,100710.84
2023-03-02T00:29:15.754Z,100705.56
2023-03-02T00:31:43.664Z,100710.84
2023-03-02T00:34:11.704Z,100702.06
2023-03-02T00:36:40.026Z,100708.22
2023-03-02T00:39:08.334Z,100705.56
2023-03-02T00:41:36.139Z,100701.19
2023-03-02T00:44:04.148Z,100695.03
2023-03-02T00:46:32.811Z,100700.31
2023-03-02T00:49:00.754Z,100702.03
2023-03-02T00:51:28.835Z,100705.59
2023-03-02T00:53:57.303Z,100701.22
2023-03-02T00:56:24.962Z,100702.97
2023-03-02T00:58:54.019Z,100692.44
2023-03-02T01:01:22.371Z,100694.25
2023-03-02T01:03:53.360Z,100694.28
2023-03-02T01:06:22.149Z,100690.75
2023-03-02T01:08:50.261Z,100689.88
2023-03-02T01:11:21.466Z,100693.41
2023-03-02T01:13:50.539Z,100683.75
2023-03-02T01:16:18.770Z,100686.41
2023-03-02T01:18:46.540Z,100679.38
2023-03-02T01:21:16.096Z,100671.47
2023-03-02T01:23:44.188Z,100663.56
2023-03-02T01:26:12.631Z,100669.72
2023-03-02T01:28:40.424Z,100663.53
2023-03-02T01:31:08.367Z,100652.97
2023-03-02T01:33:36.292Z,100661.75
2023-03-02T01:36:04.959Z,100652.06
2023-03-02T01:38:32.933Z,100655.63
2023-03-02T01:41:00.649Z,100651.25
2023-03-02T01:43:29.469Z,100655.66
2023-03-02T01:46:07.185Z,100651.28
2023-03-02T01:48:54.359Z,100647.81
2023-03-02T01:51:40.734Z,100652.28
2023-03-02T01:54:17.311Z,100647.91
2023-03-02T01:56:46.798Z,100643.59
2023-03-02T01:59:19.482Z,100647.97
2023-03-02T02:01:56.739Z,100647.16
2023-03-02T02:04:27.538Z,100637.47
2023-03-02T02:07:00.652Z,100634.84
2023-03-02T02:09:33.888Z,100630.44
2023-03-02T02:12:02.912Z,100633.94
2023-03-02T02:14:30.643Z,100626.03
2023-03-02T02:16:58.615Z,100630.34
2023-03-02T02:20:01.746Z,100630.34
2023-03-02T02:22:56.248Z,100622.44
2023-03-02T02:25:58.384Z,100631.22
2023-03-02T02:28:57.549Z,100622.44
2023-03-02T02:31:35.915Z,100627.72
2023-03-02T02:35:05.154Z,100620.69
2023-03-02T02:37:46.477Z,100610.19
2023-03-02T02:40:57.244Z,100625.97
2023-03-02T02:43:32.228Z,100613.66
2023-03-02T02:46:02.374Z,100606.59
2023-03-02T02:48:32.489Z,100610.97
2023-03-02T02:51:02.853Z,100610.09
2023-03-02T02:54:04.683Z,100616.25
2023-03-02T02:56:40.303Z,100616.31
2023-03-02T02:59:20.892Z,100606.59
2023-03-02T03:02:20.567Z,100615.47
2023-03-02T03:04:48.873Z,100615.47
2023-03-02T03:07:25.125Z,100613.72
2023-03-02T03:10:34.924Z,100605.03
2023-03-02T03:13:07.235Z,100601.53
2023-03-02T03:15:35.578Z,100612.09
2023-03-02T03:18:03.678Z,100603.31
2023-03-02T03:20:33.394Z,100614.72
2023-03-02T03:23:01.568Z,100619.16
2023-03-02T03:25:35.017Z,100614.78
2023-03-02T03:28:04.062Z,100617.41
2023-03-02T03:30:33.155Z,100621.81
2023-03-02T03:33:01.166Z,100620.97
2023-03-02T03:35:29.148Z,100620.97
2023-03-02T03:37:57.351Z,100617.47
2023-03-02T03:40:25.634Z,100612.19
2023-03-02T03:42:53.878Z,100619.22
2023-03-02T03:45:21.587Z,100625.38
2023-03-02T03:47:49.648Z,100620.09
2023-03-02T03:50:17.818Z,100628.91
2023-03-02T03:52:45.891Z,100628.00
2023-03-02T03:55:19.977Z,100615.66
2023-03-02T03:57:49.772Z,100611.31
2023-03-02T04:00:18.410Z,100620.91
2023-03-02T04:03:01.915Z,100615.66
2023-03-02T04:05:31.724Z,100606.03
2023-03-02T04:08:02.181Z,100614.81
2023-03-02T04:10:30.690Z,100627.13
2023-03-02T04:12:58.860Z,100628.03
2023-03-02T04:15:27.099Z,100619.28
2023-03-02T04:17:54.893Z,100628.03
2023-03-02T04:20:25.168Z,100625.47
2023-03-02T04:22:57.637Z,100625.47
2023-03-02T04:25:28.770Z,100622.91
2023-03-02T04:28:13.164Z,100636.09
2023-03-02T04:30:41.848Z,100629.06
2023-03-02T04:33:10.505Z,100624.69
2023-03-02T04:35:38.573Z,100624.72
2023-03-02T04:38:06.529Z,100628.22
2023-03-02T04:40:35.050Z,100627.38
2023-03-02T04:43:02.889Z,100626.53
2023-03-02T04:45:30.833Z,100627.41
2023-03-02T04:47:58.743Z,100626.53
2023-03-02T04:50:26.965Z,100630.94
2023-03-02T04:52:54.696Z,100617.78
2023-03-02T04:55:25.271Z,100616.03
2023-03-02T04:57:53.175Z,100614.31
2023-03-02T05:00:21.530Z,100603.84
2023-03-02T05:02:49.967Z,100605.59
2023-03-02T05:05:22.881Z,100608.22
2023-03-02T05:07:52.293Z,100603.81
2023-03-02T05:10:21.900Z,100608.22
2023-03-02T05:13:02.151Z,100604.72
2023-03-02T05:15:40.107Z,100612.59
2023-03-02T05:18:12.135Z,100607.34
2023-03-02T05:20:40.238Z,100613.47
2023-03-02T05:23:25.247Z,100619.63
2023-03-02T05:25:56.086Z,100612.59
2023-03-02T05:28:26.322Z,100601.22
2023-03-02T05:30:54.702Z,100610.84
2023-03-02T05:33:22.510Z,100608.22
2023-03-02T05:35:50.622Z,100606.47
2023-03-02T05:38:18.486Z,100610.88
2023-03-02T05:40:48.760Z,100615.22
2023-03-02T05:43:20.337Z,100618.75
2023-03-02T05:45:48.098Z,100624.97
2023-03-02T05:48:16.277Z,100613.56
2023-03-02T05:50:44.737Z,100619.66
2023-03-02T05:53:12.428Z,100619.72
2023-03-02T05:55:40.090Z,100629.34
2023-03-02T05:58:14.624Z,100621.47
2023-03-02T06:00:42.591Z,100626.75
2023-03-02T06:03:10.711Z,100633.75
2023-03-02T06:05:38.752Z,100635.50
2023-03-02T06:08:06.936Z,100633.78
2023-03-02T06:10:35.329Z,100638.09
2023-03-02T06:13:03.335Z,100643.41
2023-03-02T06:15:31.223Z,100646.06
2023-03-02T06:17:59.006Z,100643.41
2023-03-02T06:20:27.235Z,100649.56
2023-03-02T06:22:55.101Z,100642.50
2023-03-02T06:25:25.390Z,100646.00
2023-03-02T06:27:54.770Z,100653.88
2023-03-02T06:30:27.022Z,100663.59
2023-03-02T06:32:55.398Z,100656.53
2023-03-02T06:35:24.073Z,100664.44
2023-03-02T06:37:53.517Z,100655.66
2023-03-02T06:40:21.652Z,100658.31
2023-03-02T06:42:51.198Z,100667.94
2023-03-02T06:45:19.011Z,100660.06
2023-03-02T06:47:46.752Z,100667.94
2023-03-02T06:50:14.489Z,100667.94
2023-03-02T06:52:44.731Z,100662.66
2023-03-02T06:55:12.451Z,100673.22
2023-03-02T06:57:40.227Z,100666.19
2023-03-02T07:00:17.077Z,100663.56
2023-03-02T07:02:45.331Z,100661.81
2023-03-02T07:05:13.692Z,100657.44
2023-03-02T07:07:41.879Z,100669.72
2023-03-02T07:10:13.316Z,100670.56
2023-03-02T07:12:42.053Z,100666.19
2023-03-02T07:15:14.083Z,100674.06
2023-03-02T07:17:45.039Z,100674.91
2023-03-02T07:20:16.628Z,100674.03
2023-03-02T07:22:45.183Z,100667.88
2023-03-02T07:25:15.465Z,100676.59
2023-03-02T07:27:43.305Z,100677.44
2023-03-02T07:30:12.086Z,100680.06
2023-03-02T07:32:39.952Z,100676.53
2023-03-02T07:35:08.200Z,100680.00
2023-03-02T07:37:35.987Z,100687.00
2023-03-02T07:40:13.952Z,100671.19
2023-03-02T07:42:44.435Z,100686.06
2023-03-02T07:45:17.004Z,100683.44
2023-03-02T07:47:44.747Z,100693.94
2023-03-02T07:50:12.789Z,100693.03
2023-03-02T07:52:40.617Z,100691.22
2023-03-02T07:55:11.090Z,100690.34
2023-03-02T07:57:38.875Z,100693.78
2023-03-02T08:00:09.358Z,100693.75
2023-03-02T08:02:42.109Z,100696.38
2023-03-02T08:05:11.835Z,100698.09
2023-03-02T08:07:44.633Z,100696.31
2023-03-02T08:10:12.780Z,100689.28
2023-03-02T08:12:42.880Z,100692.72
2023-03-02T08:15:12.750Z,100694.44
2023-03-02T08:17:41.595Z,100696.19
2023-03-02T08:20:10.067Z,100692.63
2023-03-02T08:22:39.558Z,100682.03
2023-03-02T08:25:09.678Z,100687.25
2023-03-02T08:27:40.145Z,100686.28
2023-03-02T08:30:10.630Z,100688.00
2023-03-02T08:32:39.737Z,100692.31
2023-03-02T08:35:08.704Z,100693.13
2023-03-02T08:37:36.391Z,100694.81
2023-03-02T08:40:04.511Z,100689.41
2023-03-02T08:42:32.269Z,100684.91
2023-03-02T08:45:00.062Z,100680.47
2023-03-02T08:47:28.257Z,100683.88
2023-03-02T08:49:56.263Z,100682.06
2023-03-02T08:52:23.990Z,100675.78
2023-03-02T08:54:52.231Z,100676.59
2023-03-02T08:57:21.361Z,100677.38
2023-03-02T09:00:14.842Z,100683.47
2023-03-02T09:03:06.082Z,100671.88
2023-03-02T09:05:34.358Z,100666.44
2023-03-02T09:08:05.496Z,100670.75
2023-03-02T09:10:33.914Z,100667.13
2023-03-02T09:13:03.790Z,100667.03
2023-03-02T09:15:34.262Z,100664.25
2023-03-02T09:18:04.423Z,100666.75
2023-03-02T09:20:34.020Z,100667.47
2023-03-02T09:23:03.160Z,100663.06
2023-03-02T09:25:33.529Z,100660.25
2023-03-02T09:28:03.521Z,100664.50
2023-03-02T09:30:32.527Z,100667.84
2023-03-02T09:33:02.022Z,100677.38
2023-03-02T09:35:32.528Z,100665.78
2023-03-02T09:38:01.241Z,100667.34
2023-03-02T09:40:32.979Z,100674.25
2023-03-02T09:43:24.145Z,100673.59
2023-03-02T09:46:06.591Z,100672.44
2023-03-02T09:48:41.828Z,100657.19
2023-03-02T09:51:27.808Z,100662.16
2023-03-02T09:54:20.277Z,100652.31
2023-03-02T09:56:55.738Z,100658.28
2023-03-02T09:59:31.852Z,100656.28
2023-03-02T10:02:28.866Z,100645.56
2023-03-02T10:05:02.242Z,100658.66
2023-03-02T10:07:40.048Z,100651.47
2023-03-02T10:10:18.259Z,100656.59
2023-03-02T10:13:00.823Z,100660.81
2023-03-02T10:16:03.033Z,100650.97
2023-03-02T10:19:09.375Z,100649.94
2023-03-02T10:21:44.081Z,100644.50
2023-03-02T10:24:23.695Z,100641.72
2023-03-02T10:26:56.307Z,100634.63
2023-03-02T10:29:39.546Z,100637.88
2023-03-02T10:32:43.601Z,100632.34
2023-03-02T10:35:24.701Z,100639.28
2023-03-02T10:38:02.176Z,100626.88
2023-03-02T10:41:06.681Z,100638.13
2023-03-02T10:43:54.165Z,100631.91
2023-03-02T10:46:22.132Z,100638.81
2023-03-02T10:49:01.204Z,100631.50
2023-03-02T10:51:37.980Z,100638.41
2023-03-02T10:54:18.311Z,100625.91
2023-03-02T10:56:52.709Z,100630.13
2023-03-02T10:59:29.205Z,100622.03
2023-03-02T11:02:23.437Z,100624.63
2023-03-02T11:04:59.750Z,100625.38
2023-03-02T11:07:29.209Z,100627.09
2023-03-02T11:10:02.786Z,100625.94
2023-03-02T11:12:33.164Z,100619.69
2023-03-02T11:15:16.352Z,100619.44
2023-03-02T11:18:06.680Z,100616.88
2023-03-02T11:20:40.941Z,100613.25
2023-03-02T11:23:40.551Z,100613.97
2023-03-02T11:26:47.568Z,100607.69
2023-03-02T11:29:59.008Z,100610.16
2023-03-02T11:32:52.877Z,100604.66
2023-03-02T11:35:34.260Z,100611.19
2023-03-02T11:38:19.564Z,100601.88
2023-03-02T11:41:15.395Z,100606.03
2023-03-02T11:43:43.166Z,100603.28
2023-03-02T11:46:26.593Z,100595.03
2023-03-02T11:49:11.694Z,100601.16
2023-03-02T11:51:57.698Z,100596.66
2023-03-02T11:54:46.779Z,100591.22
2023-03-02T11:57:34.105Z,100581.31
2023-03-02T12:00:03.551Z,100595.47
2023-03-02T12:02:40.488Z,100573.91
2023-03-02T12:05:26.338Z,100579.00
2023-03-02T12:08:04.043Z,100586.00
2023-03-02T12:10:41.835Z,100563.84
2023-03-02T12:13:24.639Z,100584.91
2023-03-02T12:15:54.412Z,100572.44
2023-03-02T12:18:23.878Z,100578.44
2023-03-02T12:21:18.536Z,100574.56
2023-03-02T12:23:49.440Z,100568.28
2023-03-02T12:26:20.774Z,100570.88
2023-03-02T12:29:00.465Z,100568.00
2023-03-02T12:31:58.599Z,100568.06
2023-03-02T12:34:38.723Z,100564.47
2023-03-02T12:37:27.824Z,100557.31
2023-03-02T12:40:24.480Z,100557.09
2023-03-02T12:43:17.884Z,100563.13
2023-03-02T12:46:27.069Z,100540.84
2023-03-02T12:49:32.099Z,100546.00
2023-03-02T12:52:04.408Z,100543.47
2023-03-02T12:54:34.875Z,100540.56
2023-03-02T12:57:18.905Z,100539.47
2023-03-02T12:59:59.185Z,100533.13
2023-03-02T13:02:37.567Z,100535.63
2023-03-02T13:05:08.762Z,100533.72
2023-03-02T13:07:56.844Z,100526.53
2023-03-02T13:10:40.478Z,100526.25
2023-03-02T13:13:34.677Z,100525.25
2023-03-02T13:16:28.541Z,100525.25
2023-03-02T13:19:17.376Z,100518.03
2023-03-02T13:21:45.536Z,100518.13
2023-03-02T13:25:03.801Z,100517.09
2023-03-02T13:27:35.030Z,100522.53
2023-03-02T13:30:28.207Z,100514.25
2023-03-02T13:33:06.286Z,100514.19
2023-03-02T13:35:37.193Z,100512.28
2023-03-02T13:38:22.086Z,100514.63
2023-03-02T13:40:55.741Z,100517.22
2023-03-02T13:43:33.054Z,100503.63
2023-03-02T13:46:04.665Z,100517.88
2023-03-02T13:48:33.775Z,100513.25
2023-03-02T13:51:15.193Z,100511.34
2023-03-02T13:53:55.911Z,100504.97
2023-03-02T13:56:38.531Z,100506.63
2023-03-02T13:59:15.234Z,100500.41
2023-03-02T14:01:47.116Z,100509.19
2023-03-02T14:04:23.155Z,100495.78
2023-03-02T14:06:54.494Z,100502.69
2023-03-02T14:09:22.821Z,100502.59
2023-03-02T14:11:54.026Z,100505.00
2023-03-02T14:14:26.377Z,100499.56
2023-03-02T14:16:54.646Z,100495.16
2023-03-02T14:19:24.688Z,100493.22
2023-03-02T14:21:54.709Z,100498.38
2023-03-02T14:24:22.682Z,100499.19
2023-03-02T14:26:50.754Z,100487.50
2023-03-02T14:29:27.364Z,100485.59
2023-03-02T14:31:57.439Z,100492.63
2023-03-02T14:34:28.282Z,100484.59
2023-03-02T14:37:02.583Z,100481.88
2023-03-02T14:39:38.295Z,100482.53
2023-03-02T14:42:12.735Z,100484.19
2023-03-02T14:44:42.063Z,100484.16
2023-03-02T14:47:10.352Z,100485.81
2023-03-02T14:49:39.078Z,100485.69
2023-03-02T14:52:46.406Z,100481.16
2023-03-02T14:55:27.788Z,100471.50
2023-03-02T14:58:10.812Z,100484.63
2023-03-02T15:01:03.735Z,100482.09
2023-03-02T15:03:31.905Z,100482.84
2023-03-02T15:06:01.775Z,100481.81
2023-03-02T15:08:32.793Z,100479.03
2023-03-02T15:11:00.614Z,100479.03
2023-03-02T15:13:28.316Z,100485.13
2023-03-02T15:15:58.716Z,100481.44
2023-03-02T15:18:27.339Z,100472.47
2023-03-02T15:20:55.059Z,100484.03
2023-03-02T15:23:22.945Z,100493.84
2023-03-02T15:25:50.712Z,100485.91
2023-03-02T15:28:18.676Z,100485.97
2023-03-02T15:30:47.493Z,100489.53
2023-03-02T15:33:15.290Z,100488.78
2023-03-02T15:35:45.846Z,100486.97
2023-03-02T15:38:15.704Z,100489.72
2023-03-02T15:40:43.536Z,100502.13
2023-03-02T15:43:13.663Z,100499.44
2023-03-02T15:45:47.373Z,100496.66
2023-03-02T15:48:15.672Z,100499.44
2023-03-02T15:50:43.380Z,100496.84
2023-03-02T15:53:11.128Z,100499.44
2023-03-02T15:55:42.396Z,100496.09
2023-03-02T15:58:11.651Z,100495.50
2023-03-02T16:00:39.958Z,100500.97
2023-03-02T16:03:07.897Z,100492.41
2023-03-02T16:05:35.872Z,100497.69
2023-03-02T16:08:04.124Z,100504.00
2023-03-02T16:10:36.301Z,100498.81
2023-03-02T16:13:07.814Z,100506.94
2023-03-02T16:15:41.076Z,100504.47
2023-03-02T16:18:11.231Z,100512.56
2023-03-02T16:20:39.562Z,100513.66
2023-03-02T16:23:08.249Z,100520.84
2023-03-02T16:25:43.688Z,100510.31
2023-03-02T16:28:13.104Z,100512.41
2023-03-02T16:30:44.197Z,100518.72
2023-03-02T16:33:21.261Z,100511.06
2023-03-02T16:35:50.304Z,100521.75
2023-03-02T16:38:18.157Z,100516.59
2023-03-02T16:40:46.280Z,100526.41
2023-03-02T16:43:14.116Z,100522.94
2023-03-02T16:45:46.173Z,100524.16
2023-03-02T16:48:13.962Z,100529.50
2023-03-02T16:50:42.238Z,100532.25
2023-03-02T16:53:10.351Z,100533.34
2023-03-02T16:55:38.163Z,100542.31
2023-03-02T16:58:05.867Z,100534.47
2023-03-02T17:00:33.758Z,100534.66
2023-03-02T17:03:02.283Z,100534.78
2023-03-02T17:05:30.143Z,100536.63
2023-03-02T17:08:00.077Z,100544.75
2023-03-02T17:10:28.200Z,100544.91
2023-03-02T17:12:56.542Z,100561.00
2023-03-02T17:15:24.432Z,100554.19
2023-03-02T17:17:52.387Z,100551.63
2023-03-02T17:20:20.703Z,100561.56
2023-03-02T17:22:48.627Z,100566.13
2023-03-02T17:25:18.174Z,100568.16
2023-03-02T17:27:46.186Z,100574.50
2023-03-02T17:30:15.376Z,100574.72
2023-03-02T17:32:43.588Z,100567.81
2023-03-02T17:35:15.771Z,100576.84
2023-03-02T17:37:46.350Z,100586.00
2023-03-02T17:40:16.157Z,100573.75
2023-03-02T17:42:44.193Z,100587.06
2023-03-02T17:45:24.311Z,100587.13
2023-03-02T17:47:54.228Z,100587.38
2023-03-02T17:50:23.168Z,100587.56
2023-03-02T17:52:51.309Z,100595.75
2023-03-02T17:55:21.121Z,100599.34
2023-03-02T17:57:48.998Z,100607.56
2023-03-02T18:00:21.446Z,100605.91
2023-03-02T18:02:50.030Z,100614.84
2023-03-02T18:05:17.926Z,100615.88
2023-03-02T18:07:45.904Z,100624.75
2023-03-02T18:10:14.875Z,100621.38
2023-03-02T18:12:44.697Z,100622.41
2023-03-02T18:15:13.309Z,100626.06
2023-03-02T18:17:41.042Z,100628.00
2023-03-02T18:20:09.968Z,100629.81
2023-03-02T18:22:37.938Z,100630.00
2023-03-02T18:25:06.394Z,100636.34
2023-03-02T18:27:34.820Z,100637.38
2023-03-02T18:30:03.271Z,100642.84
2023-03-02T18:32:31.164Z,100637.75
2023-03-02T18:34:59.128Z,100644.06
2023-03-02T18:37:26.935Z,100650.44
2023-03-02T18:39:55.173Z,100652.31
2023-03-02T18:42:22.981Z,100645.38
2023-03-02T18:44:51.114Z,100658.75
2023-03-02T18:47:19.014Z,100661.53
2023-03-02T18:49:52.128Z,100651.94
2023-03-02T18:52:22.192Z,100656.47
2023-03-02T18:54:50.770Z,100653.84
2023-03-02T18:57:18.500Z,100663.66
2023-03-02T18:59:46.356Z,100647.91
2023-03-02T19:02:14.483Z,100657.63
2023-03-02T19:04:43.641Z,100658.59
2023-03-02T19:07:13.824Z,100665.69
2023-03-02T19:09:43.540Z,100671.03
2023-03-02T19:12:11.338Z,100672.00
2023-03-02T19:14:42.589Z,100664.94
2023-03-02T19:17:12.844Z,100674.81
2023-03-02T19:19:43.441Z,100674.72
2023-03-02T19:22:11.349Z,100675.63
2023-03-02T19:24:40.417Z,100663.38
2023-03-02T19:27:09.764Z,100673.91
2023-03-02T19:29:40.898Z,100675.72
2023-03-02T19:32:10.622Z,100679.34
2023-03-02T19:34:39.435Z,100687.31
2023-03-02T19:37:07.411Z,100681.19
2023-03-02T19:39:35.193Z,100685.66
2023-03-02T19:42:03.410Z,100685.66
2023-03-02T19:44:31.872Z,100682.19
2023-03-02T19:47:00.172Z,100672.59
2023-03-02T19:49:28.316Z,100683.16
2023-03-02T19:51:56.225Z,100685.94
2023-03-02T19:54:23.971Z,100686.91
2023-03-02T19:56:53.921Z,100694.00
2023-03-02T19:59:23.623Z,100689.66
2023-03-02T20:01:53.084Z,100690.53
2023-03-02T20:04:20.908Z,100695.84
2023-03-02T20:06:49.455Z,100692.28
2023-03-02T20:09:19.811Z,100702.09
2023-03-02T20:11:50.088Z,100699.53
2023-03-02T20:14:32.768Z,100697.81
2023-03-02T20:17:03.429Z,100703.22
2023-03-02T20:19:31.466Z,100700.72
2023-03-02T20:21:59.505Z,100699.13
2023-03-02T20:24:28.284Z,100701.78
2023-03-02T20:26:56.622Z,100696.59
2023-03-02T20:29:24.614Z,100689.66
2023-03-02T20:31:52.925Z,100704.66
2023-03-02T20:34:20.918Z,100707.47
2023-03-02T20:36:50.014Z,100702.16
2023-03-02T20:39:31.405Z,100704.84
2023-03-02T20:41:59.459Z,100700.63
2023-03-02T20:44:31.001Z,100703.22
2023-03-02T20:47:01.438Z,100712.53
2023-03-02T20:49:30.969Z,100711.56
2023-03-02T20:52:02.208Z,100723.00
2023-03-02T20:54:41.046Z,100715.09
2023-03-02T20:57:12.795Z,100722.16
2023-03-02T21:00:00.820Z,100715.25
2023-03-02T21:02:49.198Z,100712.59
2023-03-02T21:05:19.940Z,100721.44
2023-03-02T21:07:48.275Z,100720.63
2023-03-02T21:10:22.648Z,100718.84
2023-03-02T21:12:50.651Z,100725.97
2023-03-02T21:15:20.277Z,100724.28
2023-03-02T21:17:48.253Z,100723.50
2023-03-02T21:20:18.431Z,100725.28
2023-03-02T21:22:46.955Z,100721.84
2023-03-02T21:25:17.022Z,100738.63
2023-03-02T21:27:45.418Z,100736.06
2023-03-02T21:30:22.646Z,100737.75
2023-03-02T21:32:52.692Z,100728.97
2023-03-02T21:35:21.986Z,100729.88
2023-03-02T21:37:54.272Z,100731.63
2023-03-02T21:40:32.235Z,100716.72
2023-03-02T21:43:02.456Z,100716.72
2023-03-02T21:45:30.355Z,100723.84
2023-03-02T21:48:00.488Z,100711.50
2023-03-02T21:50:32.108Z,100712.44
2023-03-02T21:53:00.148Z,100715.06
2023-03-02T21:55:29.937Z,100716.88
2023-03-02T21:57:58.678Z,100717.81
2023-03-02T22:00:35.638Z,100720.44
2023-03-02T22:03:04.753Z,100717.03
2023-03-02T22:05:33.756Z,100716.22
2023-03-02T22:08:01.609Z,100712.78
2023-03-02T22:10:34.131Z,100720.72
2023-03-02T22:13:30.401Z,100725.25
2023-03-02T22:16:12.359Z,100716.47
2023-03-02T22:18:40.407Z,100704.28
2023-03-02T22:21:21.417Z,100712.16
2023-03-02T22:23:51.445Z,100718.53
2023-03-02T22:26:19.312Z,100725.56
2023-03-02T22:28:47.134Z,100717.63
2023-03-02T22:31:21.462Z,100716.78
2023-03-02T22:33:50.344Z,100714.25
2023-03-02T22:36:24.577Z,100721.25
2023-03-02T22:38:54.321Z,100724.84
2023-03-02T22:41:22.082Z,100733.63
2023-03-02T22:43:50.351Z,100728.38
2023-03-02T22:46:21.865Z,100732.81
2023-03-02T22:48:52.782Z,100726.63
2023-03-02T22:51:29.290Z,100732.81
2023-03-02T22:54:00.181Z,100740.78
2023-03-02T22:56:45.850Z,100737.25
2023-03-02T22:59:26.561Z,100730.22
2023-03-02T23:02:15.412Z,100728.56
2023-03-02T23:04:43.245Z,100728.66
2023-03-02T23:07:21.629Z,100728.59
2023-03-02T23:09:49.592Z,100723.38
2023-03-02T23:12:28.145Z,100740.09
2023-03-02T23:14:58.304Z,100735.75
2023-03-02T23:17:41.514Z,100734.00
2023-03-02T23:20:13.853Z,100747.22
2023-03-02T23:22:42.481Z,100727.91
2023-03-02T23:25:10.507Z,100741.94
2023-03-02T23:27:38.249Z,100741.06
2023-03-02T23:30:06.463Z,100745.53
2023-03-02T23:32:34.990Z,100743.78
2023-03-02T23:35:02.962Z,100750.00
2023-03-02T23:37:30.989Z,100748.28
2023-03-02T23:39:58.939Z,100747.41
2023-03-02T23:42:26.686Z,100749.22
2023-03-02T23:44:55.642Z,100736.91
2023-03-02T23:47:23.403Z,100736.97
2023-03-02T23:49:51.467Z,100741.31
2023-03-02T23:52:19.444Z,100743.16
2023-03-02T23:54:47.352Z,100746.69
2023-03-02T23:57:15.126Z,100738.78
2023-03-02T23:59:43.124Z,100741.47
